This is the latest recevied weather packets stored in our database for station/object G6UIM. If no packets are shown the sender has not sent any weather packets the latest 10 day(s).
| Time | Temp. | Humidity | Pressure | Rain* | Wind** | Luminosity | Snow |
|---|---|---|---|---|---|---|---|
| 1778116217 | 7.22° C | 88% | 1015.2 hPa | 0 mm | - | 0 W/m² | - |
| 1778106637 | 9.44° C | 84% | 1015.6 hPa | 0 mm | - | 0 W/m² | - |
| 1778103017 | 10.56° C | 83% | 1015.7 hPa | 0 mm | - | 0 W/m² | - |
| 1778102417 | 10.56° C | 83% | 1015.7 hPa | 0 mm | - | 0 W/m² | - |
| 1778101217 | 11.11° C | 82% | 1015.7 hPa | 0 mm | - | 0 W/m² | - |
| 1778098257 | 11.11° C | 80% | 1015.3 hPa | 0 mm | - | 0 W/m² | - |
| 1778095817 | 11.67° C | 79% | 1015.1 hPa | 0 mm | - | 4 W/m² | - |
| 1778095217 | 11.67° C | 79% | 1015 hPa | 0 mm | - | 8 W/m² | - |
| 1778089817 | 12.78° C | 74% | 1014.9 hPa | 0 mm | - | 104 W/m² | - |
| 1778086817 | 12.78° C | 74% | 1014.7 hPa | 0 mm | - | 176 W/m² | - |
| 1778082037 | 12.78° C | 77% | 1014.8 hPa | 0 mm | - | 445 W/m² | - |
| 1778076617 | 11.67° C | 79% | 1015.2 hPa | 0 mm | - | 490 W/m² | - |
| 1778073617 | 10.56° C | 81% | 1015.4 hPa | 0 mm | - | 288 W/m² | - |
| 1778073016 | 10.56° C | 81% | 1015.3 hPa | 0 mm | - | 265 W/m² | - |
| 1778067616 | 10.56° C | 80% | 1015.2 hPa | 0 mm | - | 181 W/m² | - |
| 1778066416 | 10.56° C | 79% | 1015.2 hPa | 0 mm | - | 201 W/m² | - |
| 1778056216 | 10.56° C | 82% | 1014.6 hPa | 0 mm | - | 135 W/m² | - |
| 1778053816 | 10.56° C | 81% | 1014.3 hPa | 0 mm | - | 89 W/m² | - |
| 1778052617 | 10.56° C | 81% | 1014.2 hPa | 0 mm | - | 136 W/m² | - |
| 1778051436 | 10.56° C | 81% | 1014.1 hPa | 0 mm | - | 97 W/m² | - |
| 1778047216 | 8.89° C | 83% | 1013.7 hPa | 0 mm | - | 47 W/m² | - |
| 1778039436 | 9.44° C | 80% | 1013.5 hPa | 0 mm | - | 0 W/m² | - |
| 1778034618 | 10.56° C | 79% | 1013.8 hPa | 0 mm | - | 0 W/m² | - |
| 1778030418 | 11.11° C | 78% | 1013.8 hPa | 0 mm | - | 0 W/m² | - |
| 1778028017 | 11.11° C | 78% | 1014 hPa | 0 mm | - | 0 W/m² | - |
* Rain latest hour (hover to see other rain measurements)
** Current wind speed in m/s (hover to see current wind gust speed)